Time;durP1;ratioP1;P1;durP2;ratioP2;P2;SDS_P1;SDS_P2;PMS_P1;PMS_P2;Temp;Humidity;BMP_temperature;BMP_pressure;BME280_temperature;BME280_humidity;BME280_pressure;Samples;Min_cycle;Max_cycle;Signal;HPM_P1;HPM_P2
2021/12/25 00:00:00;;;;;;;9.23;3.63;;;;;;;3.61;100.00;92920.59;4990457;28;20490;-81
2021/12/25 00:02:28;;;;;;;9.20;4.07;;;;;;;3.60;100.00;92919.81;4972481;28;20053;-80
2021/12/25 00:04:54;;;;;;;7.28;3.28;;;;;;;3.62;100.00;92924.72;4990714;28;20038;-81
2021/12/25 00:07:21;;;;;;;7.20;3.03;;;;;;;3.48;100.00;92911.81;4990573;28;20055;-81
2021/12/25 00:09:49;;;;;;;6.28;2.65;;;;;;;3.63;100.00;92926.31;4990265;28;20539;-81
2021/12/25 00:12:16;;;;;;;5.70;2.83;;;;;;;3.65;100.00;92921.06;4990244;28;20081;-81
2021/12/25 00:14:43;;;;;;;6.72;2.85;;;;;;;3.60;100.00;92899.50;4990418;28;20057;-81
2021/12/25 00:17:10;;;;;;;9.88;3.65;;;;;;;3.68;100.00;92910.53;4990122;28;20046;-80
2021/12/25 00:19:37;;;;;;;9.20;3.97;;;;;;;3.42;100.00;92871.91;4990104;28;20045;-80
2021/12/25 00:22:04;;;;;;;10.43;3.85;;;;;;;3.56;100.00;92902.56;4990135;28;20049;-80
2021/12/25 00:24:31;;;;;;;5.47;3.30;;;;;;;3.58;100.00;92911.59;4989223;28;20045;-81
2021/12/25 00:27:04;;;;;;;6.40;3.38;;;;;;;3.57;100.00;92919.38;4990273;28;20054;-80
2021/12/25 00:29:49;;;;;;;6.47;3.47;;;;;;;3.58;100.00;92926.84;4990324;28;20042;-82
2021/12/25 00:32:39;;;;;;;8.00;4.10;;;;;;;3.21;100.00;92870.03;4990220;28;20125;-82
2021/12/25 00:35:07;;;;;;;7.95;4.00;;;;;;;3.22;100.00;92874.16;4990413;28;20537;-82
2021/12/25 00:37:34;;;;;;;6.20;3.30;;;;;;;3.57;100.00;92922.69;4990442;28;20061;-82
2021/12/25 00:40:01;;;;;;;9.98;5.05;;;;;;;3.30;100.00;92889.31;4989868;28;20047;-82
2021/12/25 00:42:30;;;;;;;6.13;3.25;;;;;;;2.72;100.00;92821.28;4990211;28;20065;-82
2021/12/25 00:44:57;;;;;;;4.15;2.67;;;;;;;3.57;100.00;92930.31;4990336;28;20042;-82
2021/12/25 00:47:23;;;;;;;6.90;3.13;;;;;;;3.60;100.00;92934.25;4989599;28;20042;-81
2021/12/25 00:49:50;;;;;;;4.65;2.78;;;;;;;3.62;100.00;92927.28;4990049;28;20061;-81
2021/12/25 00:52:17;;;;;;;6.45;3.25;;;;;;;3.64;100.00;92927.06;4990131;28;20049;-81
2021/12/25 00:54:44;;;;;;;5.50;2.78;;;;;;;3.59;100.00;92917.44;4989865;28;20046;-81
2021/12/25 00:57:11;;;;;;;6.45;3.03;;;;;;;3.66;100.00;92908.16;4989988;28;20046;-81
2021/12/25 00:59:39;;;;;;;4.85;2.92;;;;;;;3.66;100.00;92910.69;4989784;28;20050;-80
2021/12/25 01:02:06;;;;;;;6.57;3.45;;;;;;;3.65;100.00;92910.91;4989728;28;20421;-81
2021/12/25 01:04:33;;;;;;;7.43;3.40;;;;;;;3.63;100.00;92907.72;4989940;28;20042;-81
2021/12/25 01:07:00;;;;;;;9.82;4.15;;;;;;;3.61;100.00;92915.50;4990050;28;20043;-81
2021/12/25 01:09:27;;;;;;;11.98;6.15;;;;;;;3.60;100.00;92901.25;4989657;28;20446;-80
2021/12/25 01:11:55;;;;;;;6.90;3.97;;;;;;;3.51;100.00;92895.44;4989857;28;20046;-80
2021/12/25 01:14:31;;;;;;;11.65;5.45;;;;;;;3.38;100.00;92868.13;4989515;28;20161;-81
2021/12/25 01:17:31;;;;;;;9.18;5.13;;;;;;;3.58;100.00;92905.72;4989619;28;20092;-80
2021/12/25 01:25:50;;;;;;;11.13;5.88;;;;;;;3.51;100.00;92895.44;4972853;28;20055;-81
2021/12/25 01:31:05;;;;;;;9.07;5.40;;;;;;;3.33;100.00;92893.22;4986320;28;20069;-81
2021/12/25 01:33:57;;;;;;;52.35;25.30;;;;;;;3.23;100.00;92898.56;4989481;28;20137;-80
2021/12/25 01:39:17;;;;;;;11.30;5.75;;;;;;;3.15;100.00;92907.03;4986473;28;20125;-80
2021/12/25 01:42:06;;;;;;;15.55;6.45;;;;;;;2.49;100.00;92875.31;4992830;28;20050;-80
2021/12/25 01:47:49;;;;;;;10.63;5.28;;;;;;;2.70;100.00;92911.16;4992991;28;20045;-80
2021/12/25 01:50:19;;;;;;;8.95;5.10;;;;;;;2.46;100.00;92887.56;4992919;28;20057;-82
2021/12/25 01:52:47;;;;;;;8.88;5.70;;;;;;;2.35;100.00;92884.44;4992815;28;20060;-82
2021/12/25 01:55:17;;;;;;;10.57;5.50;;;;;;;1.79;100.00;92799.22;4992793;28;20052;-82
2021/12/25 01:57:44;;;;;;;11.48;5.32;;;;;;;2.41;100.00;92857.66;4992805;28;20046;-82
2021/12/25 02:00:15;;;;;;;11.13;6.72;;;;;;;2.77;100.00;92902.72;4992996;28;20042;-82
2021/12/25 02:02:42;;;;;;;12.77;7.28;;;;;;;2.19;100.00;92829.56;4992339;28;20047;-82
2021/12/25 02:05:09;;;;;;;11.95;5.05;;;;;;;2.38;100.00;92835.16;4992472;28;20043;-82
2021/12/25 02:07:38;;;;;;;10.93;6.40;;;;;;;2.39;100.00;92831.66;4992772;28;20054;-82
2021/12/25 02:10:06;;;;;;;9.55;5.13;;;;;;;1.85;100.00;92730.19;4992587;28;20050;-83
2021/12/25 02:12:34;;;;;;;19.45;12.20;;;;;;;2.90;100.00;92886.94;4992591;28;20057;-82
2021/12/25 02:15:07;;;;;;;10.25;6.32;;;;;;;2.97;100.00;92906.56;4992566;28;20078;-82
2021/12/25 02:17:51;;;;;;;11.50;6.72;;;;;;;2.79;100.00;92879.72;4992727;28;20050;-82
2021/12/25 02:20:27;;;;;;;9.27;5.13;;;;;;;2.96;100.00;92902.44;4992672;28;20053;-82
2021/12/25 02:23:00;;;;;;;10.18;5.63;;;;;;;2.95;100.00;92881.34;4992560;28;20132;-82
2021/12/25 02:25:27;;;;;;;7.18;4.60;;;;;;;3.13;100.00;92903.09;4992372;28;20061;-81
2021/12/25 02:27:53;;;;;;;8.18;4.78;;;;;;;3.05;100.00;92879.38;4992438;28;20054;-81
2021/12/25 02:30:20;;;;;;;7.18;4.13;;;;;;;3.15;100.00;92891.03;4992328;28;20042;-81
2021/12/25 02:32:47;;;;;;;9.57;5.43;;;;;;;3.19;100.00;92898.13;4992214;28;20050;-80
2021/12/25 02:35:16;;;;;;;9.15;5.60;;;;;;;3.24;100.00;92891.75;4991861;28;20051;-81
2021/12/25 02:37:45;;;;;;;8.88;4.80;;;;;;;3.34;100.00;92894.84;4992493;28;20046;-81
2021/12/25 02:40:14;;;;;;;10.25;5.22;;;;;;;3.36;100.00;92894.63;4992172;28;20046;-81
2021/12/25 02:42:41;;;;;;;8.05;4.32;;;;;;;3.35;100.00;92906.56;4991809;28;20145;-81
2021/12/25 02:45:17;;;;;;;17.95;9.73;;;;;;;3.34;100.00;92913.38;4992234;28;20047;-82
2021/12/25 02:47:44;;;;;;;71.47;34.13;;;;;;;3.32;100.00;92900.06;4990890;28;20038;-80
2021/12/25 02:50:11;;;;;;;14.88;7.47;;;;;;;3.37;100.00;92909.72;4991827;28;20490;-81
2021/12/25 02:52:38;;;;;;;12.30;4.65;;;;;;;2.45;100.00;92771.91;4991913;28;20054;-81
2021/12/25 02:55:07;;;;;;;8.48;4.53;;;;;;;3.29;100.00;92881.88;4991715;28;20046;-81
2021/12/25 02:57:34;;;;;;;9.65;4.97;;;;;;;3.42;100.00;92896.50;4991862;28;20418;-82
2021/12/25 03:00:01;;;;;;;7.70;3.88;;;;;;;3.40;100.00;92893.34;4991537;28;20042;-80
2021/12/25 03:02:28;;;;;;;8.07;3.90;;;;;;;3.45;100.00;92898.69;4991358;28;20042;-81
2021/12/25 03:04:55;;;;;;;10.43;4.60;;;;;;;3.44;100.00;92897.91;4991761;28;20560;-81
2021/12/25 03:07:21;;;;;;;10.75;4.47;;;;;;;3.42;100.00;92894.75;4991233;28;20068;-81
2021/12/25 03:09:48;;;;;;;10.68;4.10;;;;;;;3.43;100.00;92903.16;4991306;28;20052;-81
2021/12/25 03:12:25;;;;;;;9.80;3.95;;;;;;;3.40;100.00;92913.66;4991266;28;20046;-82
2021/12/25 03:15:05;;;;;;;6.97;3.53;;;;;;;3.28;100.00;92891.22;4991391;28;20116;-82
2021/12/25 03:17:33;;;;;;;6.13;3.33;;;;;;;3.25;100.00;92888.25;4991482;28;20134;-80
2021/12/25 03:20:00;;;;;;;9.27;3.65;;;;;;;3.28;100.00;92890.44;4991559;28;20173;-81
2021/12/25 03:22:27;;;;;;;11.45;4.05;;;;;;;3.32;100.00;92905.16;4991565;28;20202;-81
2021/12/25 03:24:54;;;;;;;7.35;3.50;;;;;;;3.32;100.00;92914.50;4991088;28;20046;-81
2021/12/25 03:27:23;;;;;;;8.02;3.70;;;;;;;2.98;100.00;92849.78;4991272;28;20434;-81
2021/12/25 03:29:50;;;;;;;9.77;4.07;;;;;;;3.36;100.00;92914.94;4991313;28;20074;-81
2021/12/25 03:32:17;;;;;;;10.93;5.05;;;;;;;3.37;100.00;92901.31;4991194;28;20057;-81
2021/12/25 03:34:44;;;;;;;7.70;3.85;;;;;;;3.36;100.00;92895.44;4991025;28;20046;-81
2021/12/25 03:37:10;;;;;;;9.70;4.45;;;;;;;3.40;100.00;92906.84;4991152;28;20046;-81
2021/12/25 03:39:37;;;;;;;8.13;3.70;;;;;;;3.40;100.00;92903.50;4990815;28;20042;-81
2021/12/25 03:42:05;;;;;;;12.25;4.63;;;;;;;3.43;100.00;92910.78;4990590;28;20852;-80
2021/12/25 03:44:35;;;;;;;8.80;3.67;;;;;;;3.43;100.00;92903.94;4990765;28;20038;-80
2021/12/25 03:47:11;;;;;;;7.40;3.85;;;;;;;3.34;100.00;92898.16;4990645;28;20046;-80
2021/12/25 03:53:08;;;;;;;7.50;3.42;;;;;;;3.29;100.00;92886.94;4990811;28;20049;-80
2021/12/25 03:58:04;;;;;;;8.48;4.68;;;;;;;3.39;100.00;92894.31;4990315;28;20061;-80
2021/12/25 04:00:34;;;;;;;14.65;6.28;;;;;;;3.39;100.00;92896.84;4990458;28;20049;-79
2021/12/25 04:03:07;;;;;;;12.98;6.38;;;;;;;3.39;100.00;92900.19;4990666;28;20042;-80
2021/12/25 04:05:38;;;;;;;7.45;4.32;;;;;;;3.12;100.00;92866.78;4990813;28;20050;-80
2021/12/25 04:08:07;;;;;;;6.43;3.35;;;;;;;3.31;100.00;92895.16;4991029;28;20075;-79
2021/12/25 04:10:37;;;;;;;7.88;3.72;;;;;;;3.36;100.00;92897.19;4990925;28;20478;-80
2021/12/25 04:13:07;;;;;;;6.43;3.15;;;;;;;3.41;100.00;92905.88;4990125;28;20082;-80
2021/12/25 04:15:36;;;;;;;6.38;3.95;;;;;;;3.51;100.00;92918.31;4990464;28;20069;-80
2021/12/25 04:18:03;;;;;;;12.93;6.10;;;;;;;3.55;100.00;92929.72;4990156;28;20038;-80
2021/12/25 04:20:31;;;;;;;17.00;7.75;;;;;;;3.41;100.00;92898.25;4990450;28;20053;-80
2021/12/25 04:23:02;;;;;;;11.45;6.03;;;;;;;3.57;100.00;92921.91;4990087;28;20050;-79
2021/12/25 04:25:31;;;;;;;9.38;4.57;;;;;;;3.59;100.00;92927.59;4990122;28;20498;-80
2021/12/25 04:28:04;;;;;;;10.85;3.90;;;;;;;3.41;100.00;92887.28;4990105;28;20053;-80
2021/12/25 04:30:40;;;;;;;8.98;4.47;;;;;;;3.41;100.00;92900.00;4990373;28;20078;-81
2021/12/25 05:03:47;;;;;;;7.13;4.30;;;;;;;3.44;100.00;92903.00;4989781;28;20057;-78
2021/12/25 05:06:16;;;;;;;10.25;5.93;;;;;;;3.46;100.00;92902.81;4989513;28;20133;-78
2021/12/25 05:08:43;;;;;;;9.05;5.43;;;;;;;3.43;100.00;92887.94;4989307;28;20121;-78
2021/12/25 05:11:10;;;;;;;8.45;4.68;;;;;;;3.58;100.00;92898.09;4992238;28;20042;-78
2021/12/25 05:13:37;;;;;;;8.55;4.93;;;;;;;3.63;100.00;92913.59;4992925;28;20055;-79
2021/12/25 05:16:04;;;;;;;9.38;5.80;;;;;;;3.65;100.00;92921.81;4993296;28;20046;-78
2021/12/25 05:18:31;;;;;;;9.93;5.93;;;;;;;3.69;100.00;92923.06;4990932;28;20042;-77
2021/12/25 05:20:58;;;;;;;23.02;11.48;;;;;;;3.54;100.00;92904.47;4992584;28;20050;-77
2021/12/25 05:23:26;;;;;;;17.83;8.90;;;;;;;3.73;100.00;92928.56;4999703;28;20046;-77
2021/12/25 05:25:54;;;;;;;20.95;9.02;;;;;;;3.78;100.00;92930.59;5006084;28;20077;-78
2021/12/25 05:28:25;;;;;;;15.27;7.63;;;;;;;3.79;100.00;92932.97;4993506;28;20051;-78
2021/12/25 05:30:53;;;;;;;9.05;5.10;;;;;;;3.74;100.00;92917.44;4993155;28;20050;-78
2021/12/25 05:33:20;;;;;;;7.45;4.57;;;;;;;3.58;100.00;92901.44;5012286;28;20046;-79
2021/12/25 05:35:47;;;;;;;8.18;5.00;;;;;;;3.78;100.00;92930.59;5012926;28;20053;-79
2021/12/25 05:38:15;;;;;;;8.98;4.53;;;;;;;3.78;100.00;92926.31;4996839;28;20388;-78
2021/12/25 05:40:45;;;;;;;7.10;4.50;;;;;;;3.52;100.00;92886.09;4992956;28;20050;-78
2021/12/25 05:43:12;;;;;;;5.45;3.00;;;;;;;3.77;100.00;92926.47;4993302;28;20053;-79
2021/12/25 05:45:39;;;;;;;8.52;4.55;;;;;;;3.58;100.00;92898.09;4993277;28;20049;-78
2021/12/25 05:48:07;;;;;;;5.68;3.70;;;;;;;3.84;100.00;92938.31;4993105;28;20450;-78
2021/12/25 05:50:34;;;;;;;6.45;3.90;;;;;;;3.87;100.00;92937.16;4993123;28;20059;-78
2021/12/25 05:53:01;;;;;;;6.88;4.00;;;;;;;3.88;100.00;92943.81;4993175;28;20057;-78
2021/12/25 05:55:28;;;;;;;8.93;5.60;;;;;;;3.86;100.00;92941.47;4992680;28;20046;-78
2021/12/25 05:57:56;;;;;;;11.63;5.95;;;;;;;3.82;100.00;92932.63;4992773;28;20591;-79
2021/12/25 06:00:24;;;;;;;10.10;4.93;;;;;;;3.94;100.00;92940.59;4992371;28;20054;-79
2021/12/25 06:02:51;;;;;;;9.70;4.72;;;;;;;3.97;100.00;92940.25;4992766;28;20038;-79
2021/12/25 06:05:19;;;;;;;13.25;6.32;;;;;;;3.99;100.00;92940.06;4992884;28;20053;-79
2021/12/25 06:07:46;;;;;;;9.73;5.88;;;;;;;3.72;100.00;92899.06;4992333;28;20046;-79
2021/12/25 06:10:13;;;;;;;10.95;6.75;;;;;;;3.91;100.00;92918.06;4992445;28;20054;-78
2021/12/25 06:12:42;;;;;;;11.73;6.90;;;;;;;3.92;100.00;92923.94;4992807;28;20090;-79
2021/12/25 06:15:14;;;;;;;8.85;5.07;;;;;;;4.08;100.00;92953.47;5011494;28;20050;-80
2021/12/25 06:17:42;;;;;;;9.55;5.68;;;;;;;4.12;100.00;92955.47;5011964;28;20509;-80
2021/12/25 06:20:10;;;;;;;15.40;6.88;;;;;;;4.12;100.00;92955.47;5012122;28;20480;-79
2021/12/25 06:22:37;;;;;;;18.77;9.27;;;;;;;4.15;100.00;92959.44;5012366;28;20053;-80
2021/12/25 06:25:04;;;;;;;24.15;12.15;;;;;;;4.18;100.00;92953.19;5012113;28;20053;-80
2021/12/25 06:27:31;;;;;;;24.17;10.30;;;;;;;3.89;100.00;92917.44;5011773;28;20042;-79
2021/12/25 06:29:58;;;;;;;20.70;10.07;;;;;;;4.13;100.00;92956.28;5009281;28;20042;-79
2021/12/25 06:32:26;;;;;;;17.80;8.60;;;;;;;4.10;100.00;92946.47;4992281;28;20134;-79
2021/12/25 06:34:53;;;;;;;11.18;6.82;;;;;;;3.92;100.00;92917.09;4991958;28;20050;-79
2021/12/25 06:37:20;;;;;;;11.18;6.00;;;;;;;4.04;100.00;92942.88;4992019;28;20054;-80
2021/12/25 06:39:48;;;;;;;10.27;6.43;;;;;;;4.13;100.00;92948.66;4992129;28;20053;-80
2021/12/25 06:42:15;;;;;;;13.05;7.45;;;;;;;3.92;100.00;92936.63;4991876;28;20046;-80
2021/12/25 06:44:42;;;;;;;17.25;9.30;;;;;;;4.13;100.00;92957.06;4992483;28;20050;-81
2021/12/25 06:47:09;;;;;;;9.98;6.05;;;;;;;4.21;100.00;92970.66;4992064;28;20410;-81
2021/12/25 06:49:37;;;;;;;10.05;6.03;;;;;;;4.21;100.00;92973.22;4991586;28;20043;-80
2021/12/25 06:52:05;;;;;;;7.57;5.40;;;;;;;4.18;100.00;92971.81;4986820;28;20038;-80
2021/12/25 06:54:32;;;;;;;9.07;5.03;;;;;;;4.19;100.00;92972.56;4970267;28;20050;-81
2021/12/25 06:56:59;;;;;;;11.95;6.43;;;;;;;4.22;100.00;92980.63;4972259;28;20497;-81
2021/12/25 06:59:26;;;;;;;9.30;5.65;;;;;;;4.26;100.00;92981.09;4972170;28;20042;-81
2021/12/25 07:01:53;;;;;;;10.63;6.95;;;;;;;4.32;100.00;92982.13;4971909;28;20558;-81
2021/12/25 07:04:20;;;;;;;27.85;15.50;;;;;;;4.34;100.00;92983.53;4972004;28;20058;-81
2021/12/25 07:06:48;;;;;;;47.88;26.63;;;;;;;4.38;100.00;92986.50;4972148;28;20047;-81
2021/12/25 07:09:15;;;;;;;26.45;17.13;;;;;;;4.40;100.00;92999.84;4972015;28;20053;-82
2021/12/25 07:11:43;;;;;;;19.10;11.85;;;;;;;4.27;100.00;92957.25;4971936;28;20527;-81
2021/12/25 07:14:11;;;;;;;18.90;10.52;;;;;;;4.43;100.00;92960.56;4994143;28;20462;-82
2021/12/25 07:16:39;;;;;;;20.58;11.52;;;;;;;4.55;100.00;92976.94;5010781;28;20544;-81
2021/12/25 07:19:06;;;;;;;19.90;11.70;;;;;;;4.35;100.00;92948.72;5010560;28;20056;-81
2021/12/25 07:21:32;;;;;;;14.88;10.27;;;;;;;4.54;100.00;92970.28;5010718;28;20382;-81
2021/12/25 07:24:03;;;;;;;13.32;8.25;;;;;;;4.65;100.00;92977.44;5010858;28;20046;-80
2021/12/25 07:26:30;;;;;;;11.57;7.85;;;;;;;4.46;100.00;92942.38;5010747;28;20137;-80
2021/12/25 07:28:57;;;;;;;14.27;9.57;;;;;;;4.69;100.00;92970.25;5010717;28;20096;-81
2021/12/25 07:31:24;;;;;;;13.55;7.90;;;;;;;4.74;100.00;92979.88;4996056;28;20046;-82
2021/12/25 07:33:51;;;;;;;14.65;8.02;;;;;;;4.75;100.00;92978.91;4990703;28;20093;-82
2021/12/25 07:36:18;;;;;;;12.48;6.90;;;;;;;4.76;100.00;92976.19;4991466;28;20042;-82
2021/12/25 07:38:45;;;;;;;9.70;6.47;;;;;;;4.63;100.00;92956.47;4991145;28;20096;-82
2021/12/25 07:41:14;;;;;;;9.00;5.13;;;;;;;4.84;100.00;92985.47;4991156;28;20058;-82
2021/12/25 07:43:40;;;;;;;11.82;6.65;;;;;;;4.89;100.00;92982.38;4990926;28;20046;-82
2021/12/25 07:46:07;;;;;;;19.52;12.48;;;;;;;4.93;100.00;92981.84;4990456;28;20038;-82
2021/12/25 07:48:34;;;;;;;15.55;9.90;;;;;;;4.88;100.00;92973.16;4990871;28;20043;-81
2021/12/25 07:51:02;;;;;;;22.38;11.52;;;;;;;4.99;100.00;92980.31;4990348;28;20061;-80
2021/12/25 07:53:31;;;;;;;18.50;9.88;;;;;;;5.00;99.98;92968.41;4991491;28;20050;-82
2021/12/25 07:55:57;;;;;;;18.23;9.68;;;;;;;5.14;100.00;92979.50;4991225;28;20038;-83
2021/12/25 07:58:26;;;;;;;15.63;8.52;;;;;;;5.13;99.63;92976.16;4990978;28;20054;-83
2021/12/25 08:00:53;;;;;;;16.63;9.38;;;;;;;4.68;99.11;92907.59;4990272;28;20061;-83
2021/12/25 08:03:21;;;;;;;14.13;7.82;;;;;;;5.26;98.65;92978.03;4990298;28;20054;-83
2021/12/25 08:05:48;;;;;;;18.67;10.13;;;;;;;5.38;98.60;92987.75;4991220;28;20387;-83
2021/12/25 08:08:15;;;;;;;16.88;9.63;;;;;;;5.45;98.50;93006.41;4991111;28;20050;-84
2021/12/25 08:10:43;;;;;;;10.60;5.88;;;;;;;5.19;97.18;92949.97;4991041;28;20380;-83
2021/12/25 08:13:10;;;;;;;14.30;8.43;;;;;;;5.41;98.21;92967.00;4993623;28;20069;-80
2021/12/25 08:15:40;;;;;;;15.88;10.00;;;;;;;5.73;97.33;92995.44;5009715;28;20561;-80
2021/12/25 08:18:08;;;;;;;12.57;6.75;;;;;;;5.81;96.97;92999.63;5009605;28;20078;-81
2021/12/25 08:20:36;;;;;;;11.82;6.78;;;;;;;5.72;96.51;92960.75;5010010;28;20041;-80
2021/12/25 08:23:03;;;;;;;14.18;7.80;;;;;;;6.03;96.39;92986.88;5009846;28;20092;-80
2021/12/25 08:25:30;;;;;;;13.85;7.28;;;;;;;6.22;95.87;93003.25;5009584;28;20046;-80
2021/12/25 08:27:56;;;;;;;11.32;6.53;;;;;;;6.35;94.22;93005.09;5009534;28;20056;-81
2021/12/25 08:30:26;;;;;;;11.52;6.68;;;;;;;6.45;94.06;93002.19;5003593;28;20057;-80
2021/12/25 08:32:55;;;;;;;12.18;7.40;;;;;;;6.05;93.82;92944.91;4989927;28;20046;-81
2021/12/25 08:35:23;;;;;;;18.77;8.48;;;;;;;6.49;93.74;92991.41;4989633;28;20577;-81
2021/12/25 08:37:50;;;;;;;9.57;4.97;;;;;;;6.46;92.88;92978.25;4989983;28;20438;-81
2021/12/25 08:40:17;;;;;;;9.50;5.30;;;;;;;6.64;92.60;92993.84;4990132;28;20371;-79
2021/12/25 08:42:49;;;;;;;6.97;4.57;;;;;;;6.61;92.56;92976.34;4989797;28;20077;-80
2021/12/25 08:45:39;;;;;;;11.85;6.82;;;;;;;6.80;92.57;92997.03;4991349;28;20406;-80
2021/12/25 08:48:08;;;;;;;8.27;3.78;;;;;;;6.65;91.46;92958.91;4993602;28;20057;-80
2021/12/25 08:50:35;;;;;;;8.07;3.65;;;;;;;6.62;90.72;92966.94;4993895;28;20058;-80
2021/12/25 08:53:02;;;;;;;8.77;4.53;;;;;;;6.06;90.21;92871.75;4993698;28;20054;-80
2021/12/25 08:55:29;;;;;;;25.08;13.98;;;;;;;6.89;90.07;93000.22;4994004;28;20054;-81
2021/12/25 08:57:56;;;;;;;17.80;7.00;;;;;;;6.88;90.13;92988.41;4993723;28;20046;-81
2021/12/25 09:00:23;;;;;;;11.30;6.40;;;;;;;6.91;91.08;92993.91;4993506;28;20510;-80
2021/12/25 09:02:51;;;;;;;10.82;5.32;;;;;;;6.75;89.94;92961.88;4994018;28;20049;-81
2021/12/25 09:05:20;;;;;;;11.32;5.07;;;;;;;6.90;89.97;92977.03;4993544;28;20057;-81
2021/12/25 09:07:46;;;;;;;9.23;4.63;;;;;;;6.88;90.57;92981.56;4993744;28;20046;-81
2021/12/25 09:10:13;;;;;;;9.52;5.38;;;;;;;6.93;90.60;92981.78;4993225;28;20046;-80
2021/12/25 09:12:42;;;;;;;13.88;6.68;;;;;;;6.85;90.63;92968.38;4993724;28;20505;-81
2021/12/25 09:15:11;;;;;;;11.23;5.88;;;;;;;6.93;90.91;92969.00;5012576;28;20100;-81
2021/12/25 09:17:38;;;;;;;23.90;12.55;;;;;;;6.94;90.75;92975.69;5013292;28;20073;-80
2021/12/25 09:20:07;;;;;;;19.15;9.70;;;;;;;6.76;90.68;92947.34;5012612;28;20639;-81
2021/12/25 09:22:36;;;;;;;14.82;7.30;;;;;;;5.88;89.93;92804.97;5012962;28;20042;-81
2021/12/25 09:25:04;;;;;;;17.52;8.55;;;;;;;6.73;90.68;92928.09;5012766;28;20057;-80
2021/12/25 09:27:31;;;;;;;18.77;8.73;;;;;;;6.79;90.77;92926.53;5012904;28;20049;-81
2021/12/25 09:29:58;;;;;;;16.17;7.78;;;;;;;6.76;90.50;92921.81;5010260;28;20489;-81
2021/12/25 09:32:25;;;;;;;13.15;6.43;;;;;;;6.75;90.64;92915.94;4992953;28;20046;-82
2021/12/25 09:34:52;;;;;;;12.95;5.93;;;;;;;6.67;90.01;92900.81;4993124;28;20050;-82
2021/12/25 09:37:18;;;;;;;8.82;4.47;;;;;;;7.06;89.74;92954.69;4993184;28;20050;-82
2021/12/25 09:39:47;;;;;;;13.68;6.93;;;;;;;7.03;89.98;92945.63;4989823;28;20499;-81
2021/12/25 09:42:14;;;;;;;16.27;7.60;;;;;;;7.14;90.13;92958.81;4991451;28;20057;-81
2021/12/25 09:44:41;;;;;;;23.60;10.77;;;;;;;6.85;90.23;92909.66;4992453;28;20053;-81
2021/12/25 09:47:08;;;;;;;24.15;12.25;;;;;;;7.21;90.01;92955.28;4993141;28;20038;-81
2021/12/25 09:49:34;;;;;;;31.70;17.65;;;;;;;6.99;90.65;92895.16;4992364;28;20498;-81
2021/12/25 09:52:01;;;;;;;31.00;16.98;;;;;;;7.08;89.79;92909.28;4993118;28;20058;-81
2021/12/25 09:54:29;;;;;;;18.98;10.13;;;;;;;7.20;89.65;92905.19;4992948;28;20073;-81
2021/12/25 09:56:58;;;;;;;35.15;18.45;;;;;;;7.26;88.73;92906.16;4992201;28;20089;-81
2021/12/25 09:59:25;;;;;;;23.65;12.00;;;;;;;7.01;89.13;92872.75;4992787;28;20065;-82
2021/12/25 10:01:54;;;;;;;54.63;27.88;;;;;;;7.40;89.36;92924.06;4992749;28;21190;-81
2021/12/25 10:04:36;;;;;;;56.55;24.85;;;;;;;7.48;89.32;92923.84;4992492;28;20490;-81
2021/12/25 10:07:16;;;;;;;63.08;31.10;;;;;;;7.52;89.35;92924.25;4993009;28;20047;-81
2021/12/25 10:09:43;;;;;;;21.65;11.57;;;;;;;7.45;88.60;92904.59;4992832;28;20047;-81
2021/12/25 10:12:13;;;;;;;57.70;27.83;;;;;;;7.58;89.15;92919.13;4992603;28;20386;-81
2021/12/25 10:14:43;;;;;;;20.90;10.43;;;;;;;7.67;89.05;92911.25;5007594;28;20500;-81
2021/12/25 10:17:15;;;;;;;25.15;14.30;;;;;;;7.57;88.77;92886.91;5011789;28;20482;-81
2021/12/25 10:19:42;;;;;;;26.77;13.10;;;;;;;7.27;87.75;92837.97;5011695;28;20054;-81
2021/12/25 10:22:11;;;;;;;24.98;10.27;;;;;;;7.78;87.57;92905.53;5011872;28;20580;-81
2021/12/25 10:24:48;;;;;;;17.40;7.97;;;;;;;7.66;87.14;92884.91;5011730;28;20092;-81
2021/12/25 10:27:20;;;;;;;17.00;8.30;;;;;;;7.96;86.91;92912.56;5011567;28;20050;-81
2021/12/25 10:29:47;;;;;;;20.17;9.75;;;;;;;8.02;87.26;92913.56;5010485;28;20100;-81
2021/12/25 10:32:19;;;;;;;26.25;13.75;;;;;;;8.04;86.93;92901.34;4992317;28;20072;-80
2021/12/25 10:34:46;;;;;;;15.73;8.88;;;;;;;7.62;87.05;92828.28;4991784;28;20469;-81
2021/12/25 10:37:15;;;;;;;19.48;10.75;;;;;;;8.13;86.78;92894.22;4991725;28;20053;-81
2021/12/25 10:39:42;;;;;;;14.75;8.27;;;;;;;7.95;87.12;92869.28;4992109;28;20062;-81
2021/12/25 10:42:13;;;;;;;8.68;4.82;;;;;;;8.18;87.03;92896.97;4992117;28;20053;-80
2021/12/25 10:44:44;;;;;;;22.75;13.32;;;;;;;8.07;86.61;92869.47;4992017;28;20046;-80
2021/12/25 10:47:13;;;;;;;13.30;6.20;;;;;;;8.25;86.28;92890.03;4991997;28;20057;-80
2021/12/25 10:49:43;;;;;;;22.73;11.68;;;;;;;8.31;86.06;92888.47;4991646;28;20047;-80
2021/12/25 10:52:13;;;;;;;27.13;15.02;;;;;;;8.17;86.54;92849.34;4991686;28;20042;-80
2021/12/25 10:54:43;;;;;;;13.98;7.40;;;;;;;8.38;86.26;92878.97;4995843;28;20044;-80
2021/12/25 10:57:10;;;;;;;14.52;7.50;;;;;;;8.36;85.80;92877.59;5011258;28;20053;-80
2021/12/25 10:59:46;;;;;;;25.77;14.15;;;;;;;8.49;85.53;92872.44;5006225;28;20047;-80
2021/12/25 11:02:28;;;;;;;10.88;6.32;;;;;;;8.36;84.98;92857.13;4989841;28;20061;-80
2021/12/25 11:04:55;;;;;;;17.63;10.27;;;;;;;8.40;84.96;92846.31;4992319;28;20054;-82
2021/12/25 11:07:22;;;;;;;11.13;6.47;;;;;;;8.40;85.10;92840.38;4990932;28;20165;-83
2021/12/25 11:10:05;;;;;;;7.95;4.93;;;;;;;8.43;84.35;92840.00;4991454;28;20057;-83
2021/12/25 11:12:32;;;;;;;9.23;4.55;;;;;;;8.09;84.76;92791.53;4991485;28;20050;-83
2021/12/25 11:15:12;;;;;;;4.55;2.85;;;;;;;8.42;84.58;92836.63;5008985;28;20413;-83
2021/12/25 11:17:41;;;;;;;6.30;3.70;;;;;;;8.34;84.36;92815.63;5010651;28;20065;-83
2021/12/25 11:20:17;;;;;;;8.65;4.00;;;;;;;8.63;84.68;92862.94;5010985;28;20042;-82
2021/12/25 11:22:50;;;;;;;10.95;4.97;;;;;;;8.61;84.62;92861.59;5010765;28;20052;-83
2021/12/25 11:25:19;;;;;;;12.57;5.15;;;;;;;8.66;84.26;92861.75;5010421;28;20477;-82
2021/12/25 11:27:48;;;;;;;14.23;7.28;;;;;;;8.53;84.97;92824.22;5010357;28;20406;-82
2021/12/25 11:30:18;;;;;;;15.77;7.20;;;;;;;8.55;84.97;92811.97;5010912;28;20068;-82
2021/12/25 11:32:46;;;;;;;11.82;6.22;;;;;;;7.98;83.91;92726.47;5010592;28;20050;-82
2021/12/25 11:35:15;;;;;;;10.60;5.07;;;;;;;8.88;84.21;92835.81;5010267;28;20050;-82
2021/12/25 11:37:42;;;;;;;12.55;6.35;;;;;;;8.67;84.01;92797.50;5010348;28;20058;-82
2021/12/25 11:40:11;;;;;;;37.83;16.35;;;;;;;8.98;84.17;92830.22;5010369;28;20402;-82
2021/12/25 11:42:42;;;;;;;34.42;14.98;;;;;;;8.88;83.83;92805.06;5010204;28;20042;-82
2021/12/25 11:45:18;;;;;;;22.75;11.20;;;;;;;8.96;83.72;92807.38;5010118;28;20425;-82
2021/12/25 11:47:48;;;;;;;17.38;8.70;;;;;;;9.13;83.08;92822.22;5010098;28;20433;-81
2021/12/25 11:50:17;;;;;;;16.05;7.55;;;;;;;9.18;82.92;92825.72;5008408;28;20054;-80
2021/12/25 11:52:50;;;;;;;18.75;9.77;;;;;;;9.21;83.14;92830.41;4990651;28;20142;-80
2021/12/25 11:55:34;;;;;;;18.35;10.65;;;;;;;9.16;82.75;92820.00;4990627;28;20050;-80
2021/12/25 11:58:16;;;;;;;21.40;13.23;;;;;;;9.05;81.93;92801.00;4990814;28;20050;-81
2021/12/25 12:00:47;;;;;;;22.10;12.20;;;;;;;9.28;81.37;92819.31;4990406;28;20564;-81
2021/12/25 12:03:38;;;;;;;20.98;11.93;;;;;;;9.27;81.72;92818.56;4990219;28;20513;-81
2021/12/25 12:06:05;;;;;;;24.65;12.80;;;;;;;9.26;81.50;92809.28;4990399;28;20045;-80
2021/12/25 12:09:11;;;;;;;27.17;14.93;;;;;;;9.34;82.52;92816.69;4990676;28;20062;-80
2021/12/25 12:11:40;;;;;;;26.73;12.98;;;;;;;9.09;82.55;92773.94;4980385;28;20505;-80
2021/12/25 12:14:17;;;;;;;16.95;8.35;;;;;;;9.34;81.55;92821.03;5001179;28;20505;-80
2021/12/25 12:16:46;;;;;;;18.00;8.80;;;;;;;9.41;81.31;92815.84;5009846;28;20046;-80
2021/12/25 12:19:42;;;;;;;16.73;9.27;;;;;;;9.42;81.01;92818.22;5009527;28;20053;-80
2021/12/25 12:22:46;;;;;;;13.88;6.75;;;;;;;9.20;80.43;92798.09;5010077;28;20065;-80
2021/12/25 12:25:25;;;;;;;11.23;4.82;;;;;;;9.38;81.55;92821.38;4988279;28;20051;-80
2021/12/25 12:27:54;;;;;;;15.23;8.13;;;;;;;9.36;81.74;92817.25;4990281;28;20042;-80
2021/12/25 12:30:52;;;;;;;20.08;9.88;;;;;;;9.38;81.35;92809.38;4990217;28;20043;-80